sensor_id;sensor_type;location;lat;lon;timestamp;pressure;altitude;pressure_sealevel;temperature
64600;BMP280;6553;48.412;9.514;2023-07-13T00:01:58;72267.53;;;25.50
64600;BMP280;6553;48.412;9.514;2023-07-13T00:04:25;72270.84;;;25.51
64600;BMP280;6553;48.412;9.514;2023-07-13T00:06:52;72271.41;;;25.51
64600;BMP280;6553;48.412;9.514;2023-07-13T00:09:19;72269.81;;;25.50
64600;BMP280;6553;48.412;9.514;2023-07-13T00:11:49;72272.06;;;25.49
64600;BMP280;6553;48.412;9.514;2023-07-13T00:14:15;72268.06;;;25.51
64600;BMP280;6553;48.412;9.514;2023-07-13T00:16:41;72273.66;;;25.51
64600;BMP280;6553;48.412;9.514;2023-07-13T00:19:12;72270.84;;;25.51
64600;BMP280;6553;48.412;9.514;2023-07-13T00:21:39;72269.81;;;25.50
64600;BMP280;6553;48.412;9.514;2023-07-13T00:24:07;72257.03;;;25.48
64600;BMP280;6553;48.412;9.514;2023-07-13T00:26:34;72274.34;;;25.49
64600;BMP280;6553;48.412;9.514;2023-07-13T00:28:59;72268.75;;;25.49
64600;BMP280;6553;48.412;9.514;2023-07-13T00:31:25;72268.75;;;25.49
64600;BMP280;6553;48.412;9.514;2023-07-13T00:33:51;72266.50;;;25.49
64600;BMP280;6553;48.412;9.514;2023-07-13T00:36:19;72264.88;;;25.48
64600;BMP280;6553;48.412;9.514;2023-07-13T00:38:45;72253.16;;;25.47
64600;BMP280;6553;48.412;9.514;2023-07-13T00:41:11;72263.78;;;25.47
64600;BMP280;6553;48.412;9.514;2023-07-13T00:43:37;72262.75;;;25.46
64600;BMP280;6553;48.412;9.514;2023-07-13T00:46:26;72267.28;;;25.45
64600;BMP280;6553;48.412;9.514;2023-07-13T00:48:54;72263.28;;;25.46
64600;BMP280;6553;48.412;9.514;2023-07-13T00:51:31;72262.75;;;25.46
64600;BMP280;6553;48.412;9.514;2023-07-13T00:54:00;72262.75;;;25.46
64600;BMP280;6553;48.412;9.514;2023-07-13T00:56:31;72262.22;;;25.45
64600;BMP280;6553;48.412;9.514;2023-07-13T00:59:01;72264.47;;;25.45
64600;BMP280;6553;48.412;9.514;2023-07-13T01:01:28;72265.03;;;25.45
64600;BMP280;6553;48.412;9.514;2023-07-13T01:03:54;72263.41;;;25.44
64600;BMP280;6553;48.412;9.514;2023-07-13T01:06:20;72265.03;;;25.45
64600;BMP280;6553;48.412;9.514;2023-07-13T01:08:46;72261.28;;;25.42
64600;BMP280;6553;48.412;9.514;2023-07-13T01:11:18;72261.69;;;25.45
64600;BMP280;6553;48.412;9.514;2023-07-13T01:13:45;72265.16;;;25.43
64600;BMP280;6553;48.412;9.514;2023-07-13T01:16:33;72263.94;;;25.44
64600;BMP280;6553;48.412;9.514;2023-07-13T01:19:00;72278.06;;;25.42
64600;BMP280;6553;48.412;9.514;2023-07-13T01:21:32;72259.16;;;25.40
64600;BMP280;6553;48.412;9.514;2023-07-13T01:23:59;72262.34;;;25.43
64600;BMP280;6553;48.412;9.514;2023-07-13T01:26:25;72263.56;;;25.41
64600;BMP280;6553;48.412;9.514;2023-07-13T01:28:51;72259.69;;;25.40
64600;BMP280;6553;48.412;9.514;2023-07-13T01:31:17;72259.56;;;25.43
64600;BMP280;6553;48.412;9.514;2023-07-13T01:33:43;72263.56;;;25.41
64600;BMP280;6553;48.412;9.514;2023-07-13T01:36:11;72261.28;;;25.42
64600;BMP280;6553;48.412;9.514;2023-07-13T01:38:37;72264.09;;;25.42
64600;BMP280;6553;48.412;9.514;2023-07-13T01:41:03;72258.50;;;25.42
64600;BMP280;6553;48.412;9.514;2023-07-13T01:43:29;72264.09;;;25.42
64600;BMP280;6553;48.412;9.514;2023-07-13T01:45:55;72255.16;;;25.41
64600;BMP280;6553;48.412;9.514;2023-07-13T01:48:21;72255.84;;;25.39
64600;BMP280;6553;48.412;9.514;2023-07-13T01:50:48;72263.00;;;25.41
64600;BMP280;6553;48.412;9.514;2023-07-13T01:53:14;72259.81;;;25.38
64600;BMP280;6553;48.412;9.514;2023-07-13T01:55:41;72255.84;;;25.39
64600;BMP280;6553;48.412;9.514;2023-07-13T01:58:07;72253.56;;;25.40
64600;BMP280;6553;48.412;9.514;2023-07-13T02:00:33;72260.91;;;25.39
64600;BMP280;6553;48.412;9.514;2023-07-13T02:03:01;72262.47;;;25.40
64600;BMP280;6553;48.412;9.514;2023-07-13T02:05:27;72258.09;;;25.39
64600;BMP280;6553;48.412;9.514;2023-07-13T02:07:53;72255.97;;;25.37
64600;BMP280;6553;48.412;9.514;2023-07-13T02:10:19;72260.38;;;25.38
64600;BMP280;6553;48.412;9.514;2023-07-13T02:12:45;72254.25;;;25.38
64600;BMP280;6553;48.412;9.514;2023-07-13T02:15:11;72256.50;;;25.37
64600;BMP280;6553;48.412;9.514;2023-07-13T02:17:37;72252.63;;;25.36
64600;BMP280;6553;48.412;9.514;2023-07-13T02:20:05;72259.44;;;25.35
64600;BMP280;6553;48.412;9.514;2023-07-13T02:22:31;72255.97;;;25.37
64600;BMP280;6553;48.412;9.514;2023-07-13T02:24:57;72252.13;;;25.36
64600;BMP280;6553;48.412;9.514;2023-07-13T02:27:23;72256.09;;;25.34
64600;BMP280;6553;48.412;9.514;2023-07-13T02:29:49;72251.06;;;25.35
64600;BMP280;6553;48.412;9.514;2023-07-13T02:32:17;72257.19;;;25.35
64600;BMP280;6553;48.412;9.514;2023-07-13T02:34:43;72252.22;;;25.33
64600;BMP280;6553;48.412;9.514;2023-07-13T02:37:09;72250.50;;;25.34
64600;BMP280;6553;48.412;9.514;2023-07-13T02:39:35;72244.94;;;25.34
64600;BMP280;6553;48.412;9.514;2023-07-13T02:42:03;72251.06;;;25.35
64600;BMP280;6553;48.412;9.514;2023-07-13T02:44:29;72248.94;;;25.33
64600;BMP280;6553;48.412;9.514;2023-07-13T02:46:55;72247.19;;;25.34
64600;BMP280;6553;48.412;9.514;2023-07-13T02:49:21;72256.09;;;25.34
64600;BMP280;6553;48.412;9.514;2023-07-13T02:51:47;72257.31;;;25.33
64600;BMP280;6553;48.412;9.514;2023-07-13T02:54:13;72251.19;;;25.32
64600;BMP280;6553;48.412;9.514;2023-07-13T02:56:40;72246.78;;;25.31
64600;BMP280;6553;48.412;9.514;2023-07-13T02:59:06;72246.78;;;25.31
64600;BMP280;6553;48.412;9.514;2023-07-13T03:01:32;72247.88;;;25.32
64600;BMP280;6553;48.412;9.514;2023-07-13T03:04:01;72247.88;;;25.32
64600;BMP280;6553;48.412;9.514;2023-07-13T03:06:30;72251.84;;;25.30
64600;BMP280;6553;48.412;9.514;2023-07-13T03:08:57;72255.16;;;25.31
64600;BMP280;6553;48.412;9.514;2023-07-13T03:11:23;72242.41;;;25.29
64600;BMP280;6553;48.412;9.514;2023-07-13T03:13:56;72249.03;;;25.30
64600;BMP280;6553;48.412;9.514;2023-07-13T03:16:23;72249.19;;;25.28
64600;BMP280;6553;48.412;9.514;2023-07-13T03:18:51;72243.59;;;25.28
64600;BMP280;6553;48.412;9.514;2023-07-13T03:21:17;72244.28;;;25.26
64600;BMP280;6553;48.412;9.514;2023-07-13T03:23:43;72249.72;;;25.28
64600;BMP280;6553;48.412;9.514;2023-07-13T03:26:14;72241.50;;;25.26
64600;BMP280;6553;48.412;9.514;2023-07-13T03:28:42;72246.41;;;25.28
64600;BMP280;6553;48.412;9.514;2023-07-13T03:31:22;72245.84;;;25.27
64600;BMP280;6553;48.412;9.514;2023-07-13T03:33:49;72246.41;;;25.28
64600;BMP280;6553;48.412;9.514;2023-07-13T03:36:27;72245.84;;;25.27
64600;BMP280;6553;48.412;9.514;2023-07-13T03:38:59;72245.47;;;25.24
64600;BMP280;6553;48.412;9.514;2023-07-13T03:41:33;72238.16;;;25.25
64600;BMP280;6553;48.412;9.514;2023-07-13T03:43:59;72244.28;;;25.26
64600;BMP280;6553;48.412;9.514;2023-07-13T03:46:26;72242.00;;;25.26
64600;BMP280;6553;48.412;9.514;2023-07-13T03:48:53;72237.63;;;25.25
64600;BMP280;6553;48.412;9.514;2023-07-13T03:51:19;72246.00;;;25.25
64600;BMP280;6553;48.412;9.514;2023-07-13T03:53:47;72247.72;;;25.24
64600;BMP280;6553;48.412;9.514;2023-07-13T03:56:17;72241.06;;;25.23
64600;BMP280;6553;48.412;9.514;2023-07-13T03:58:47;72242.66;;;25.24
64600;BMP280;6553;48.412;9.514;2023-07-13T04:01:19;72239.34;;;25.24
64600;BMP280;6553;48.412;9.514;2023-07-13T04:03:45;72238.81;;;25.23
64600;BMP280;6553;48.412;9.514;2023-07-13T04:06:20;72238.28;;;25.23
64600;BMP280;6553;48.412;9.514;2023-07-13T04:08:53;72241.59;;;25.23
64600;BMP280;6553;48.412;9.514;2023-07-13T04:11:22;72235.50;;;25.23
64600;BMP280;6553;48.412;9.514;2023-07-13T04:13:50;72233.91;;;25.21
64600;BMP280;6553;48.412;9.514;2023-07-13T04:16:18;72240.56;;;25.22
64600;BMP280;6553;48.412;9.514;2023-07-13T04:18:46;72244.53;;;25.21
64600;BMP280;6553;48.412;9.514;2023-07-13T04:21:13;72235.06;;;25.20
64600;BMP280;6553;48.412;9.514;2023-07-13T04:23:40;72236.84;;;25.19
64600;BMP280;6553;48.412;9.514;2023-07-13T04:26:07;72232.44;;;25.17
64600;BMP280;6553;48.412;9.514;2023-07-13T04:28:33;72236.84;;;25.19
64600;BMP280;6553;48.412;9.514;2023-07-13T04:30:59;72239.63;;;25.19
64600;BMP280;6553;48.412;9.514;2023-07-13T04:33:27;72240.16;;;25.19
64600;BMP280;6553;48.412;9.514;2023-07-13T04:35:54;72230.72;;;25.18
64600;BMP280;6553;48.412;9.514;2023-07-13T04:38:29;72234.03;;;25.19
64600;BMP280;6553;48.412;9.514;2023-07-13T04:41:03;72237.88;;;25.20
64600;BMP280;6553;48.412;9.514;2023-07-13T04:43:30;72234.03;;;25.19
64600;BMP280;6553;48.412;9.514;2023-07-13T04:45:57;72240.16;;;25.19
64600;BMP280;6553;48.412;9.514;2023-07-13T04:48:27;72235.22;;;25.17
64600;BMP280;6553;48.412;9.514;2023-07-13T04:50:58;72235.63;;;25.20
64600;BMP280;6553;48.412;9.514;2023-07-13T04:53:26;72238.94;;;25.21
64600;BMP280;6553;48.412;9.514;2023-07-13T04:55:52;72235.22;;;25.17
64600;BMP280;6553;48.412;9.514;2023-07-13T04:58:18;72234.03;;;25.19
64600;BMP280;6553;48.412;9.514;2023-07-13T05:00:44;72241.34;;;25.18
64600;BMP280;6553;48.412;9.514;2023-07-13T05:03:09;72235.75;;;25.18
64600;BMP280;6553;48.412;9.514;2023-07-13T05:05:35;72234.69;;;25.17
64600;BMP280;6553;48.412;9.514;2023-07-13T05:08:01;72235.75;;;25.18
64600;BMP280;6553;48.412;9.514;2023-07-13T05:10:28;72237.47;;;25.17
64600;BMP280;6553;48.412;9.514;2023-07-13T05:12:54;72232.97;;;25.18
64600;BMP280;6553;48.412;9.514;2023-07-13T05:15:22;72230.19;;;25.18
64600;BMP280;6553;48.412;9.514;2023-07-13T05:17:49;72234.84;;;25.14
64600;BMP280;6553;48.412;9.514;2023-07-13T05:20:17;72236.84;;;25.19
64600;BMP280;6553;48.412;9.514;2023-07-13T05:22:44;72232.03;;;25.14
64600;BMP280;6553;48.412;9.514;2023-07-13T05:25:10;72229.78;;;25.15
64600;BMP280;6553;48.412;9.514;2023-07-13T05:27:36;72232.56;;;25.15
64600;BMP280;6553;48.412;9.514;2023-07-13T05:30:04;72234.69;;;25.17
64600;BMP280;6553;48.412;9.514;2023-07-13T05:32:30;72233.63;;;25.16
64600;BMP280;6553;48.412;9.514;2023-07-13T05:34:56;72231.91;;;25.17
64600;BMP280;6553;48.412;9.514;2023-07-13T05:37:21;72233.63;;;25.16
64600;BMP280;6553;48.412;9.514;2023-07-13T05:39:47;72233.75;;;25.13
64600;BMP280;6553;48.412;9.514;2023-07-13T05:42:13;72225.91;;;25.14
64600;BMP280;6553;48.412;9.514;2023-07-13T05:44:39;72237.63;;;25.14
64600;BMP280;6553;48.412;9.514;2023-07-13T05:47:05;72230.97;;;25.13
64600;BMP280;6553;48.412;9.514;2023-07-13T05:49:31;72234.28;;;25.14
64600;BMP280;6553;48.412;9.514;2023-07-13T05:51:57;72237.22;;;25.11
64600;BMP280;6553;48.412;9.514;2023-07-13T05:54:23;72231.66;;;25.11
64600;BMP280;6553;48.412;9.514;2023-07-13T05:56:49;72230.97;;;25.13
64600;BMP280;6553;48.412;9.514;2023-07-13T05:59:14;72230.44;;;25.13
64600;BMP280;6553;48.412;9.514;2023-07-13T06:01:41;72228.84;;;25.11
64600;BMP280;6553;48.412;9.514;2023-07-13T06:04:07;72228.72;;;25.14
64600;BMP280;6553;48.412;9.514;2023-07-13T06:06:33;72230.97;;;25.13
64600;BMP280;6553;48.412;9.514;2023-07-13T06:08:59;72236.44;;;25.16
64600;BMP280;6553;48.412;9.514;2023-07-13T06:11:27;72229.25;;;25.14
64600;BMP280;6553;48.412;9.514;2023-07-13T06:13:53;72228.72;;;25.14
64600;BMP280;6553;48.412;9.514;2023-07-13T06:16:20;72229.78;;;25.15
64600;BMP280;6553;48.412;9.514;2023-07-13T06:18:46;72232.56;;;25.15
64600;BMP280;6553;48.412;9.514;2023-07-13T06:21:22;72228.72;;;25.14
64600;BMP280;6553;48.412;9.514;2023-07-13T06:23:50;72231.91;;;25.17
64600;BMP280;6553;48.412;9.514;2023-07-13T06:26:19;72235.38;;;25.15
64600;BMP280;6553;48.412;9.514;2023-07-13T06:28:46;72216.88;;;25.05
64600;BMP280;6553;48.412;9.514;2023-07-13T06:31:13;72234.16;;;25.16
64600;BMP280;6553;48.412;9.514;2023-07-13T06:33:39;72236.94;;;25.16
64600;BMP280;6553;48.412;9.514;2023-07-13T06:36:07;72235.22;;;25.17
64600;BMP280;6553;48.412;9.514;2023-07-13T06:38:34;72235.22;;;25.17
64600;BMP280;6553;48.412;9.514;2023-07-13T06:41:00;72237.09;;;25.14
64600;BMP280;6553;48.412;9.514;2023-07-13T06:43:25;72231.91;;;25.17
64600;BMP280;6553;48.412;9.514;2023-07-13T06:45:55;72234.69;;;25.17
64600;BMP280;6553;48.412;9.514;2023-07-13T06:48:21;72232.44;;;25.17
64600;BMP280;6553;48.412;9.514;2023-07-13T06:50:49;72238.03;;;25.17
64600;BMP280;6553;48.412;9.514;2023-07-13T06:53:15;72230.84;;;25.16
64600;BMP280;6553;48.412;9.514;2023-07-13T06:55:44;72234.03;;;25.19
64600;BMP280;6553;48.412;9.514;2023-07-13T06:58:16;72236.69;;;25.21
64600;BMP280;6553;48.412;9.514;2023-07-13T07:00:42;72240.66;;;25.20
64600;BMP280;6553;48.412;9.514;2023-07-13T07:03:08;72244.38;;;25.23
64600;BMP280;6553;48.412;9.514;2023-07-13T07:05:34;72238.28;;;25.23
64600;BMP280;6553;48.412;9.514;2023-07-13T07:07:59;72238.28;;;25.23
64600;BMP280;6553;48.412;9.514;2023-07-13T07:10:26;72241.59;;;25.23
64600;BMP280;6553;48.412;9.514;2023-07-13T07:12:52;72239.63;;;25.19
64600;BMP280;6553;48.412;9.514;2023-07-13T07:15:18;72237.22;;;25.22
64600;BMP280;6553;48.412;9.514;2023-07-13T07:17:44;72241.06;;;25.23
64600;BMP280;6553;48.412;9.514;2023-07-13T07:20:11;72241.06;;;25.23
64600;BMP280;6553;48.412;9.514;2023-07-13T07:22:36;72237.22;;;25.22
64600;BMP280;6553;48.412;9.514;2023-07-13T07:25:02;72237.34;;;25.19
64600;BMP280;6553;48.412;9.514;2023-07-13T07:27:28;72238.03;;;25.17
64600;BMP280;6553;48.412;9.514;2023-07-13T07:29:54;72236.53;;;25.24
64600;BMP280;6553;48.412;9.514;2023-07-13T07:32:20;72240.03;;;25.22
64600;BMP280;6553;48.412;9.514;2023-07-13T07:34:46;72246.16;;;25.22
64600;BMP280;6553;48.412;9.514;2023-07-13T07:37:14;72240.41;;;25.25
64600;BMP280;6553;48.412;9.514;2023-07-13T07:39:40;72238.16;;;25.25
64600;BMP280;6553;48.412;9.514;2023-07-13T07:42:07;72238.81;;;25.23
64600;BMP280;6553;48.412;9.514;2023-07-13T07:44:33;72243.22;;;25.25
64600;BMP280;6553;48.412;9.514;2023-07-13T07:47:01;72237.22;;;25.22
64600;BMP280;6553;48.412;9.514;2023-07-13T07:49:27;72244.38;;;25.23
64600;BMP280;6553;48.412;9.514;2023-07-13T07:51:53;72241.50;;;25.26
64600;BMP280;6553;48.412;9.514;2023-07-13T07:54:18;72240.41;;;25.25
64600;BMP280;6553;48.412;9.514;2023-07-13T07:56:44;72243.22;;;25.25
64600;BMP280;6553;48.412;9.514;2023-07-13T07:59:10;72239.88;;;25.24
64600;BMP280;6553;48.412;9.514;2023-07-13T08:01:36;72243.22;;;25.25
64600;BMP280;6553;48.412;9.514;2023-07-13T08:04:02;72236.53;;;25.24
64600;BMP280;6553;48.412;9.514;2023-07-13T08:06:28;72241.06;;;25.23
64600;BMP280;6553;48.412;9.514;2023-07-13T08:08:55;72247.72;;;25.24
64600;BMP280;6553;48.412;9.514;2023-07-13T08:11:21;72240.41;;;25.25
64600;BMP280;6553;48.412;9.514;2023-07-13T08:13:47;72233.91;;;25.21
64600;BMP280;6553;48.412;9.514;2023-07-13T08:16:13;72239.47;;;25.21
64600;BMP280;6553;48.412;9.514;2023-07-13T08:18:39;72242.00;;;25.26
64600;BMP280;6553;48.412;9.514;2023-07-13T08:21:06;72244.13;;;25.28
64600;BMP280;6553;48.412;9.514;2023-07-13T08:23:33;72249.03;;;25.30
64600;BMP280;6553;48.412;9.514;2023-07-13T08:25:59;72245.72;;;25.30
64600;BMP280;6553;48.412;9.514;2023-07-13T08:28:27;72242.28;;;25.32
64600;BMP280;6553;48.412;9.514;2023-07-13T08:30:53;72244.53;;;25.31
64600;BMP280;6553;48.412;9.514;2023-07-13T08:33:21;72240.66;;;25.30
64600;BMP280;6553;48.412;9.514;2023-07-13T08:35:50;72251.19;;;25.32
64600;BMP280;6553;48.412;9.514;2023-07-13T08:38:17;72247.19;;;25.34
64600;BMP280;6553;48.412;9.514;2023-07-13T08:40:45;72243.34;;;25.33
64600;BMP280;6553;48.412;9.514;2023-07-13T08:43:24;72254.38;;;25.35
64600;BMP280;6553;48.412;9.514;2023-07-13T08:45:58;72247.72;;;25.34
64600;BMP280;6553;48.412;9.514;2023-07-13T08:48:32;72250.50;;;25.34
64600;BMP280;6553;48.412;9.514;2023-07-13T08:51:26;72251.75;;;25.33
64600;BMP280;6553;48.412;9.514;2023-07-13T08:54:03;72257.72;;;25.36
64600;BMP280;6553;48.412;9.514;2023-07-13T08:56:31;72241.88;;;25.29
64600;BMP280;6553;48.412;9.514;2023-07-13T08:59:14;72263.56;;;25.41
64600;BMP280;6553;48.412;9.514;2023-07-13T09:04:59;72247.97;;;25.40
64600;BMP280;6553;48.412;9.514;2023-07-13T09:13:11;72264.88;;;25.48
64600;BMP280;6553;48.412;9.514;2023-07-13T09:15:44;72263.69;;;25.49
64600;BMP280;6553;48.412;9.514;2023-07-13T09:18:16;72258.22;;;25.47
64600;BMP280;6553;48.412;9.514;2023-07-13T09:20:57;72266.50;;;25.49
64600;BMP280;6553;48.412;9.514;2023-07-13T09:23:27;72265.41;;;25.48
64600;BMP280;6553;48.412;9.514;2023-07-13T09:26:20;72268.75;;;25.49
64600;BMP280;6553;48.412;9.514;2023-07-13T09:31:57;72267.28;;;25.45
64600;BMP280;6553;48.412;9.514;2023-07-13T09:34:25;72261.69;;;25.45
64600;BMP280;6553;48.412;9.514;2023-07-13T09:36:51;72260.06;;;25.43
64600;BMP280;6553;48.412;9.514;2023-07-13T09:39:40;72265.16;;;25.43
64600;BMP280;6553;48.412;9.514;2023-07-13T09:42:22;72265.16;;;25.43
64600;BMP280;6553;48.412;9.514;2023-07-13T09:44:58;72261.84;;;25.42
64600;BMP280;6553;48.412;9.514;2023-07-13T09:47:30;72259.03;;;25.42
64600;BMP280;6553;48.412;9.514;2023-07-13T09:50:06;72255.56;;;25.44
64600;BMP280;6553;48.412;9.514;2023-07-13T09:52:48;72259.97;;;25.46
64600;BMP280;6553;48.412;9.514;2023-07-13T09:57:50;72263.56;;;25.41
64600;BMP280;6553;48.412;9.514;2023-07-13T10:00:29;72257.28;;;25.43
64600;BMP280;6553;48.412;9.514;2023-07-13T10:03:21;72262.22;;;25.45
64600;BMP280;6553;48.412;9.514;2023-07-13T10:05:50;72258.50;;;25.42
64600;BMP280;6553;48.412;9.514;2023-07-13T10:08:26;72265.66;;;25.43
64600;BMP280;6553;48.412;9.514;2023-07-13T10:13:55;72259.56;;;25.43
64600;BMP280;6553;48.412;9.514;2023-07-13T10:16:28;72262.75;;;25.46
64600;BMP280;6553;48.412;9.514;2023-07-13T10:19:03;72267.28;;;25.45
64600;BMP280;6553;48.412;9.514;2023-07-13T10:21:50;72261.69;;;25.45
64600;BMP280;6553;48.412;9.514;2023-07-13T10:24:26;72261.69;;;25.45
64600;BMP280;6553;48.412;9.514;2023-07-13T10:27:18;72262.75;;;25.46
64600;BMP280;6553;48.412;9.514;2023-07-13T10:29:54;72265.41;;;25.48
64600;BMP280;6553;48.412;9.514;2023-07-13T10:32:25;72262.75;;;25.46
64600;BMP280;6553;48.412;9.514;2023-07-13T10:34:51;72265.41;;;25.48
64600;BMP280;6553;48.412;9.514;2023-07-13T10:37:47;72267.66;;;25.48
64600;BMP280;6553;48.412;9.514;2023-07-13T10:40:27;72270.47;;;25.48
64600;BMP280;6553;48.412;9.514;2023-07-13T10:42:59;72269.81;;;25.50
64600;BMP280;6553;48.412;9.514;2023-07-13T10:45:31;72267.66;;;25.48
64600;BMP280;6553;48.412;9.514;2023-07-13T10:48:00;72265.25;;;25.51
64600;BMP280;6553;48.412;9.514;2023-07-13T10:50:29;72269.13;;;25.52
64600;BMP280;6553;48.412;9.514;2023-07-13T10:53:03;72265.25;;;25.51
64600;BMP280;6553;48.412;9.514;2023-07-13T10:58:42;72271.94;;;25.52
64600;BMP280;6553;48.412;9.514;2023-07-13T11:01:18;72271.41;;;25.51
64600;BMP280;6553;48.412;9.514;2023-07-13T11:13:56;72271.53;;;25.49
64600;BMP280;6553;48.412;9.514;2023-07-13T11:21:30;72262.75;;;25.46
64600;BMP280;6553;48.412;9.514;2023-07-13T11:32:00;72263.16;;;25.49
64600;BMP280;6553;48.412;9.514;2023-07-13T11:34:44;72251.16;;;25.43
64600;BMP280;6553;48.412;9.514;2023-07-13T11:37:15;72263.28;;;25.46
64600;BMP280;6553;48.412;9.514;2023-07-13T11:39:46;72260.50;;;25.46
64600;BMP280;6553;48.412;9.514;2023-07-13T11:42:15;72265.94;;;25.49
64600;BMP280;6553;48.412;9.514;2023-07-13T11:44:52;72265.56;;;25.46
64600;BMP280;6553;48.412;9.514;2023-07-13T11:47:22;72264.88;;;25.48
64600;BMP280;6553;48.412;9.514;2023-07-13T11:49:54;72268.22;;;25.48
64600;BMP280;6553;48.412;9.514;2023-07-13T11:52:28;72262.22;;;25.45
64600;BMP280;6553;48.412;9.514;2023-07-13T11:55:01;72266.59;;;25.47
64600;BMP280;6553;48.412;9.514;2023-07-13T11:57:31;72263.16;;;25.49
64600;BMP280;6553;48.412;9.514;2023-07-13T12:00:04;72269.81;;;25.50
64600;BMP280;6553;48.412;9.514;2023-07-13T12:02:42;72268.22;;;25.48
64600;BMP280;6553;48.412;9.514;2023-07-13T12:05:14;72270.47;;;25.48
64600;BMP280;6553;48.412;9.514;2023-07-13T12:07:41;72262.75;;;25.46
64600;BMP280;6553;48.412;9.514;2023-07-13T12:10:27;72260.34;;;25.49
64600;BMP280;6553;48.412;9.514;2023-07-13T12:13:04;72262.75;;;25.46
64600;BMP280;6553;48.412;9.514;2023-07-13T12:18:12;72268.88;;;25.46
64600;BMP280;6553;48.412;9.514;2023-07-13T12:20:39;72262.22;;;25.45
64600;BMP280;6553;48.412;9.514;2023-07-13T12:23:26;72256.75;;;25.43
64600;BMP280;6553;48.412;9.514;2023-07-13T12:25:54;72262.75;;;25.46
64600;BMP280;6553;48.412;9.514;2023-07-13T12:28:52;72260.06;;;25.43
64600;BMP280;6553;48.412;9.514;2023-07-13T12:31:36;72267.00;;;25.50
64600;BMP280;6553;48.412;9.514;2023-07-13T12:34:19;72265.41;;;25.48
64600;BMP280;6553;48.412;9.514;2023-07-13T12:36:59;72263.28;;;25.46
64600;BMP280;6553;48.412;9.514;2023-07-13T12:39:43;72265.41;;;25.48
64600;BMP280;6553;48.412;9.514;2023-07-13T12:42:31;72262.09;;;25.48
64600;BMP280;6553;48.412;9.514;2023-07-13T12:45:23;72263.41;;;25.44
64600;BMP280;6553;48.412;9.514;2023-07-13T12:48:05;72262.22;;;25.45
64600;BMP280;6553;48.412;9.514;2023-07-13T12:50:43;72264.34;;;25.47
64600;BMP280;6553;48.412;9.514;2023-07-13T12:53:23;72259.97;;;25.46
64600;BMP280;6553;48.412;9.514;2023-07-13T12:55:59;72261.69;;;25.45
64600;BMP280;6553;48.412;9.514;2023-07-13T12:58:41;72261.16;;;25.44
64600;BMP280;6553;48.412;9.514;2023-07-13T13:01:11;72261.69;;;25.45
64600;BMP280;6553;48.412;9.514;2023-07-13T13:03:50;72266.75;;;25.44
64600;BMP280;6553;48.412;9.514;2023-07-13T13:06:29;72263.41;;;25.44
64600;BMP280;6553;48.412;9.514;2023-07-13T13:08:59;72262.22;;;25.45
64600;BMP280;6553;48.412;9.514;2023-07-13T13:11:29;72261.16;;;25.44
64600;BMP280;6553;48.412;9.514;2023-07-13T13:13:55;72259.97;;;25.46
64600;BMP280;6553;48.412;9.514;2023-07-13T13:16:31;72260.06;;;25.43
64600;BMP280;6553;48.412;9.514;2023-07-13T13:19:05;72265.41;;;25.48
64600;BMP280;6553;48.412;9.514;2023-07-13T13:21:35;72268.75;;;25.49
64600;BMP280;6553;48.412;9.514;2023-07-13T13:24:01;72265.94;;;25.49
64600;BMP280;6553;48.412;9.514;2023-07-13T13:26:27;72265.41;;;25.48
64600;BMP280;6553;48.412;9.514;2023-07-13T13:28:52;72266.50;;;25.49
64600;BMP280;6553;48.412;9.514;2023-07-13T13:31:19;72263.16;;;25.49
64600;BMP280;6553;48.412;9.514;2023-07-13T13:33:45;72265.25;;;25.51
64600;BMP280;6553;48.412;9.514;2023-07-13T13:36:20;72265.41;;;25.48
64600;BMP280;6553;48.412;9.514;2023-07-13T13:38:48;72265.41;;;25.48
64600;BMP280;6553;48.412;9.514;2023-07-13T13:41:15;72265.56;;;25.46
64600;BMP280;6553;48.412;9.514;2023-07-13T13:43:42;72261.69;;;25.45
64600;BMP280;6553;48.412;9.514;2023-07-13T13:46:19;72254.47;;;25.43
64600;BMP280;6553;48.412;9.514;2023-07-13T13:48:46;72260.63;;;25.44
64600;BMP280;6553;48.412;9.514;2023-07-13T13:51:20;72259.44;;;25.45
64600;BMP280;6553;48.412;9.514;2023-07-13T13:53:48;72258.88;;;25.45
64600;BMP280;6553;48.412;9.514;2023-07-13T13:56:15;72263.16;;;25.49
64600;BMP280;6553;48.412;9.514;2023-07-13T13:58:41;72269.94;;;25.47
64600;BMP280;6553;48.412;9.514;2023-07-13T14:01:21;72259.69;;;25.51
64600;BMP280;6553;48.412;9.514;2023-07-13T14:03:48;72264.34;;;25.47
64600;BMP280;6553;48.412;9.514;2023-07-13T14:06:19;72268.88;;;25.46
64600;BMP280;6553;48.412;9.514;2023-07-13T14:08:45;72259.97;;;25.46
64600;BMP280;6553;48.412;9.514;2023-07-13T14:11:15;72258.88;;;25.45
64600;BMP280;6553;48.412;9.514;2023-07-13T14:13:55;72257.28;;;25.43
64600;BMP280;6553;48.412;9.514;2023-07-13T14:16:27;72259.56;;;25.43
64600;BMP280;6553;48.412;9.514;2023-07-13T14:18:53;72262.34;;;25.43
64600;BMP280;6553;48.412;9.514;2023-07-13T14:21:22;72258.88;;;25.45
64600;BMP280;6553;48.412;9.514;2023-07-13T14:23:49;72264.47;;;25.45
64600;BMP280;6553;48.412;9.514;2023-07-13T14:26:25;72267.28;;;25.45
64600;BMP280;6553;48.412;9.514;2023-07-13T14:28:55;72260.50;;;25.46
64600;BMP280;6553;48.412;9.514;2023-07-13T14:31:23;72262.63;;;25.48
64600;BMP280;6553;48.412;9.514;2023-07-13T14:33:49;72265.41;;;25.48
64600;BMP280;6553;48.412;9.514;2023-07-13T14:38:53;72270.47;;;25.48
64600;BMP280;6553;48.412;9.514;2023-07-13T14:41:19;72263.78;;;25.47
64600;BMP280;6553;48.412;9.514;2023-07-13T14:43:46;72261.69;;;25.45
64600;BMP280;6553;48.412;9.514;2023-07-13T14:46:34;72261.69;;;25.45
64600;BMP280;6553;48.412;9.514;2023-07-13T14:49:05;72263.28;;;25.46
64600;BMP280;6553;48.412;9.514;2023-07-13T14:51:33;72264.88;;;25.48
64600;BMP280;6553;48.412;9.514;2023-07-13T14:54:05;72261.69;;;25.45
64600;BMP280;6553;48.412;9.514;2023-07-13T14:56:31;72261.84;;;25.42
64600;BMP280;6553;48.412;9.514;2023-07-13T14:58:57;72261.16;;;25.44
64600;BMP280;6553;48.412;9.514;2023-07-13T15:01:23;72256.75;;;25.43
64600;BMP280;6553;48.412;9.514;2023-07-13T15:03:52;72260.63;;;25.44
64600;BMP280;6553;48.412;9.514;2023-07-13T15:06:18;72261.16;;;25.44
64600;BMP280;6553;48.412;9.514;2023-07-13T15:08:46;72261.16;;;25.44
64600;BMP280;6553;48.412;9.514;2023-07-13T15:11:12;72259.56;;;25.43
64600;BMP280;6553;48.412;9.514;2023-07-13T15:13:39;72261.16;;;25.44
64600;BMP280;6553;48.412;9.514;2023-07-13T15:16:32;72259.56;;;25.43
64600;BMP280;6553;48.412;9.514;2023-07-13T15:18:58;72261.28;;;25.42
64600;BMP280;6553;48.412;9.514;2023-07-13T15:21:24;72259.56;;;25.43
64600;BMP280;6553;48.412;9.514;2023-07-13T15:23:51;72258.50;;;25.42
64600;BMP280;6553;48.412;9.514;2023-07-13T15:26:18;72254.09;;;25.40